Terminal Aerodrome Forecast
Issued by NWS

Home | Current Version | Previous Version | Text Only | Print | Product List | Glossary On
Versions: 1 2 3 4 5 6 7 8 9 10 11 12 13 14 15 16 17 18 19
000
FTUS43 KSGF 230520
TAFJLN
TAF
KJLN 230520Z 2306/2406 13012KT P6SM OVC035
     FM230900 15012KT P6SM OVC030
     FM231500 16015G21KT P6SM BKN040
     FM231800 18017G23KT P6SM SCT250
     FM240000 17015G21KT P6SM BKN250=

USA.gov is the U.S. government's official web portal to all federal, state and local government web resources and services.